Jackson Heights, NY (11372)

1:09 PM EDT on April 28, 2015 (GMT -0400)
Jackson Heights, New York | | Change Station
CLOSE
Current Station
Personal Weather Station
Location: Jackson Heights, NY
Elevation: 89 ft
Nearby Weather Stations
Active Advisory: Special Statement

Elev 89 ft 40.75 °N, 73.88 °W | Updated 5 seconds ago

Partly Cloudy
Partly Cloudy
61.0 °F
Feels Like 61.0 °F
N
13.0
Wind Variable Wind from NNE
Gusts 22.0 mph

Today
High -- | Low -- °F
--% Chance of Precip.
Yesterday
High -- | Low -- °F
Precip. -- in
5:58 AM 7:48 PM
Waxing Gibbous, 75% visible
Pressure 29.78 in
Visibility 10.0 miles
Clouds Few 6000 ft
Dew Point 36 °F
Humidity 39%
Rainfall 0.00 in
Snow Depth Not available.
UV 10 out of 12
Pollen 11.00 out of 12
Air Quality Not available.
Flu Activity Widespread
METAR KLGA 281651Z 01012G24KT 10SM FEW060 17/00 A2978 RMK AO2 SLP083 T01670000

More Conditions Fewer Conditions

Pressure 29.78 in
Visibility 10.0 miles
Clouds Few 6000 ft
Dew Point 36 °F
Humidity 39%
Rainfall 0.00 in
Snow Depth Not available.
UV 10 out of 12
Pollen 11.00 out of 12
Air Quality Not available.
Flu Activity Widespread
METAR KLGA 281651Z 01012G24KT 10SM FEW060 17/00 A2978 RMK AO2 SLP083 T01670000

More Conditions Fewer Conditions

10-Day Weather Forecast

Almanac

Astronomy

Apr. 28, 2015 Rise Set
Actual Time
Civil Twilight
Nautical Twilight
Astronomical Twilight
Moon
Length of Visible Light
Length of Day
Tomorrow will be .
, % of the Moon is Illuminated

Today's Extremes

State Highs State Lows

Community

WunderPhotos

Upload Photos

1,817,706 photos uploaded!

WunderBlogs® & News

Nearby

Air Quality

  Air Quality AQ Index Pollutant
Not available.

Snow Depth

Station Depth Elevation

Earthquake Activity

City Distance Mag. Time & Date
Minimum magnitude displayed is 2.5.

Coastal Water Temperatures

Place Temperature

Stations

Nearby Weather Stations

Station Location Temp. Windchill Dew Point Humidity Wind Precip. Elev Updated Type
                   
Special Statement
Statement as of 9:34 AM EDT on April 28, 2015

... Gusty winds and dry conditions today...

North to northwest winds will gust up to 20 to 25 mph today...
while relative humidities fall to 30 to 35 percent. This will
increase the risk for growth and spread of any fires
that develop.